Time;durP1;ratioP1;P1;durP2;ratioP2;P2;SDS_P1;SDS_P2;PMS_P1;PMS_P2;Temp;Humidity;BMP_temperature;BMP_pressure;BME280_temperature;BME280_humidity;BME280_pressure;Samples;Min_cycle;Max_cycle;Signal;HPM_P1;HPM_P2
2021/11/09 00:00:22;;;;;;;;;;;;;;;;;;342842;28;886;-73
2021/11/09 00:00:34;;;;;;;;;;;;;;;;;;341698;29;783;-73
2021/11/09 00:00:46;;;;;;;;;;;;;;;;;;340344;29;918;-73
2021/11/09 00:01:02;;;;;;;;;;;;;;;;;;340288;29;1049;-74
2021/11/09 00:01:13;;;;;;;;;;;;;;;;;;340287;29;994;-73
2021/11/09 00:01:24;;;;;;;;;;;;;;;;;;340320;29;906;-73
2021/11/09 00:01:42;;;;;;;;;;;;;;;;;;340209;29;1647;-74
2021/11/09 00:01:55;;;;;;;;;;;;;;;;;;341717;29;870;-74
2021/11/09 00:02:08;;;;;;;;;;;;;;;;;;341693;29;909;-74
2021/11/09 00:02:19;;;;;;;;;;;;;;;;;;340256;29;1166;-74
2021/11/09 00:02:55;;;;;;;;;;;;;;;;;;343033;28;616;-74
2021/11/09 00:03:09;;;;;;;;;;;;;;;;;;341525;29;1006;-74
2021/11/09 00:03:19;;;;;;;;;;;;;;;;;;340197;29;1311;-74
2021/11/09 00:03:36;;;;;;;;;;;;;;;;;;341568;29;1211;-74
2021/11/09 00:03:59;;;;;;;;;;;;;;;;;;340289;29;1291;-73
2021/11/09 00:04:09;;;;;;;;;;;;;;;;;;340383;29;990;-74
2021/11/09 00:04:22;;;;;;;;;;;;;;;;;;340298;29;1001;-74
2021/11/09 00:04:42;;;;;;;;;;;;;;;;;;340348;29;961;-74
2021/11/09 00:04:55;;;;;;;;;;;;;;;;;;340322;29;937;-74
2021/11/09 00:05:07;;;;;;;;;;;;;;;;;;341474;29;843;-74
2021/11/09 00:05:20;;;;;;;;;;;;;;;;;;342491;28;922;-74
2021/11/09 00:05:31;;;;;;;;;;;;;;;;;;345751;28;835;-74
2021/11/09 00:06:11;;;;;;;;;;;;;;;;;;345819;28;1597;-74
2021/11/09 00:06:28;;;;;;;;;;;;;;;;;;345893;28;854;-74
2021/11/09 00:06:46;;;;;;;;;;;;;;;;;;345955;28;1052;-74
2021/11/09 00:07:37;;;;;;;;;;;;;;;;;;343118;28;997;-74
2021/11/09 00:07:43;;;;;;;;;;;;;;;;;;344612;28;938;-74
2021/11/09 00:07:56;;;;;;;;;;;;;;;;;;345381;28;1183;-74
2021/11/09 00:08:12;;;;;;;;;;;;;;;;;;345827;28;953;-74
2021/11/09 00:08:25;;;;;;;;;;;;;;;;;;344495;28;1056;-73
2021/11/09 00:08:53;;;;;;;;;;;;;;;;;;344520;28;1647;-74
2021/11/09 00:09:34;;;;;;;;;;;;;;;;;;344523;28;962;-73
2021/11/09 00:10:08;;;;;;;;;;;;;;;;;;343250;28;842;-74
2021/11/09 00:10:20;;;;;;;;;;;;;;;;;;343248;28;1016;-73
2021/11/09 00:10:30;;;;;;;;;;;;;;;;;;342927;28;1469;-73
2021/11/09 00:10:43;;;;;;;;;;;;;;;;;;343195;28;938;-74
2021/11/09 00:10:53;;;;;;;;;;;;;;;;;;343220;28;996;-74
2021/11/09 00:11:10;;;;;;;;;;;;;;;;;;345697;28;841;-74
2021/11/09 00:11:20;;;;;;;;;;;;;;;;;;344493;28;925;-74
2021/11/09 00:11:31;;;;;;;;;;;;;;;;;;344578;28;894;-74
2021/11/09 00:11:41;;;;;;;;;;;;;;;;;;345258;28;1463;-74
2021/11/09 00:11:52;;;;;;;;;;;;;;;;;;345891;28;981;-73
2021/11/09 00:12:02;;;;;;;;;;;;;;;;;;345990;28;862;-74
2021/11/09 00:12:13;;;;;;;;;;;;;;;;;;345912;28;989;-74
2021/11/09 00:12:27;;;;;;;;;;;;;;;;;;345987;28;771;-74
2021/11/09 00:12:39;;;;;;;;;;;;;;;;;;345982;28;810;-74
2021/11/09 00:12:52;;;;;;;;;;;;;;;;;;345806;28;980;-74
2021/11/09 00:13:08;;;;;;;;;;;;;;;;;;345853;28;925;-73
2021/11/09 00:13:19;;;;;;;;;;;;;;;;;;345749;28;905;-73
2021/11/09 00:13:29;;;;;;;;;;;;;;;;;;345925;28;835;-74
2021/11/09 00:13:40;;;;;;;;;;;;;;;;;;344893;28;1199;-74
2021/11/09 00:13:51;;;;;;;;;;;;;;;;;;345852;28;1262;-74
2021/11/09 00:14:01;;;;;;;;;;;;;;;;;;345898;28;776;-74
2021/11/09 00:14:12;;;;;;;;;;;;;;;;;;344467;28;1302;-73
2021/11/09 00:14:22;;;;;;;;;;;;;;;;;;344497;28;1221;-74
2021/11/09 00:14:33;;;;;;;;;;;;;;;;;;344594;28;802;-74
2021/11/09 00:14:43;;;;;;;;;;;;;;;;;;344573;28;976;-74
2021/11/09 00:14:55;;;;;;;;;;;;;;;;;;344594;28;839;-74
2021/11/09 00:15:06;;;;;;;;;;;;;;;;;;344461;28;802;-73
2021/11/09 00:15:19;;;;;;;;;;;;;;;;;;344375;28;1894;-73
2021/11/09 00:15:31;;;;;;;;;;;;;;;;;;344504;28;1545;-74
2021/11/09 00:16:19;;;;;;;;;;;;;;;;;;343204;28;1009;-74
2021/11/09 00:16:31;;;;;;;;;;;;;;;;;;341927;29;831;-74
2021/11/09 00:16:41;;;;;;;;;;;;;;;;;;342865;28;879;-74
2021/11/09 00:16:51;;;;;;;;;;;;;;;;;;343241;28;834;-73
2021/11/09 00:17:02;;;;;;;;;;;;;;;;;;343265;28;965;-73
2021/11/09 00:17:12;;;;;;;;;;;;;;;;;;341726;28;1185;-74
2021/11/09 00:17:28;;;;;;;;;;;;;;;;;;343093;28;1200;-74
2021/11/09 00:17:39;;;;;;;;;;;;;;;;;;344085;28;977;-74
2021/11/09 00:17:51;;;;;;;;;;;;;;;;;;344592;28;803;-74
2021/11/09 00:18:02;;;;;;;;;;;;;;;;;;343130;28;1172;-74
2021/11/09 00:18:19;;;;;;;;;;;;;;;;;;343095;28;986;-73
2021/11/09 00:18:29;;;;;;;;;;;;;;;;;;344135;28;1376;-73
2021/11/09 00:18:39;;;;;;;;;;;;;;;;;;344603;28;894;-74
2021/11/09 00:18:50;;;;;;;;;;;;;;;;;;344607;28;791;-74
2021/11/09 00:19:01;;;;;;;;;;;;;;;;;;343249;28;799;-74
2021/11/09 00:19:11;;;;;;;;;;;;;;;;;;344330;28;859;-74
2021/11/09 00:19:22;;;;;;;;;;;;;;;;;;344413;28;1044;-73
2021/11/09 00:19:32;;;;;;;;;;;;;;;;;;344532;28;818;-74
2021/11/09 00:19:49;;;;;;;;;;;;;;;;;;344591;28;982;-74
2021/11/09 00:19:59;;;;;;;;;;;;;;;;;;343182;28;1573;-74
2021/11/09 00:20:11;;;;;;;;;;;;;;;;;;343259;28;930;-74
2021/11/09 00:20:24;;;;;;;;;;;;;;;;;;344719;28;1188;-74
2021/11/09 00:20:36;;;;;;;;;;;;;;;;;;345886;28;791;-74
2021/11/09 00:20:46;;;;;;;;;;;;;;;;;;345978;28;870;-73
2021/11/09 00:20:57;;;;;;;;;;;;;;;;;;346651;28;886;-74
2021/11/09 00:21:13;;;;;;;;;;;;;;;;;;347330;28;873;-73
2021/11/09 00:21:30;;;;;;;;;;;;;;;;;;347235;28;985;-73
2021/11/09 00:21:40;;;;;;;;;;;;;;;;;;347234;28;807;-74
2021/11/09 00:21:51;;;;;;;;;;;;;;;;;;347290;28;885;-74
2021/11/09 00:22:34;;;;;;;;;;;;;;;;;;347336;28;857;-74
2021/11/09 00:22:44;;;;;;;;;;;;;;;;;;345444;28;1034;-74
2021/11/09 00:22:56;;;;;;;;;;;;;;;;;;345909;28;909;-73
2021/11/09 00:23:08;;;;;;;;;;;;;;;;;;344518;28;922;-74
2021/11/09 00:23:18;;;;;;;;;;;;;;;;;;343097;28;1025;-73
2021/11/09 00:23:29;;;;;;;;;;;;;;;;;;342975;28;1306;-74
2021/11/09 00:23:39;;;;;;;;;;;;;;;;;;341821;29;783;-73
2021/11/09 00:23:49;;;;;;;;;;;;;;;;;;341755;29;990;-73
2021/11/09 00:24:26;;;;;;;;;;;;;;;;;;341888;29;993;-74
2021/11/09 00:24:52;;;;;;;;;;;;;;;;;;341952;28;1432;-74
2021/11/09 00:25:03;;;;;;;;;;;;;;;;;;342484;28;978;-74
2021/11/09 00:25:14;;;;;;;;;;;;;;;;;;343171;28;990;-73
2021/11/09 00:25:25;;;;;;;;;;;;;;;;;;342463;28;1366;-73
2021/11/09 00:25:36;;;;;;;;;;;;;;;;;;343209;28;933;-73
2021/11/09 00:25:47;;;;;;;;;;;;;;;;;;343221;28;986;-74
2021/11/09 00:25:57;;;;;;;;;;;;;;;;;;341900;29;918;-74
2021/11/09 00:26:08;;;;;;;;;;;;;;;;;;341773;29;980;-74
2021/11/09 00:26:34;;;;;;;;;;;;;;;;;;341925;29;725;-74
2021/11/09 00:26:46;;;;;;;;;;;;;;;;;;343272;28;909;-74
2021/11/09 00:26:57;;;;;;;;;;;;;;;;;;343624;28;835;-74
2021/11/09 00:27:13;;;;;;;;;;;;;;;;;;344458;28;981;-74
2021/11/09 00:27:24;;;;;;;;;;;;;;;;;;345548;28;925;-73
2021/11/09 00:27:34;;;;;;;;;;;;;;;;;;344589;28;839;-74
2021/11/09 00:27:47;;;;;;;;;;;;;;;;;;343222;28;914;-74
2021/11/09 00:27:58;;;;;;;;;;;;;;;;;;344452;28;835;-74
2021/11/09 00:28:09;;;;;;;;;;;;;;;;;;344579;28;799;-74
2021/11/09 00:28:20;;;;;;;;;;;;;;;;;;344471;28;814;-74
2021/11/09 00:28:30;;;;;;;;;;;;;;;;;;344493;28;965;-73
2021/11/09 00:28:40;;;;;;;;;;;;;;;;;;343094;28;870;-74
2021/11/09 00:28:51;;;;;;;;;;;;;;;;;;343262;28;831;-73
2021/11/09 00:29:28;;;;;;;;;;;;;;;;;;343609;28;835;-73
2021/11/09 00:29:39;;;;;;;;;;;;;;;;;;344902;28;806;-74
2021/11/09 00:29:49;;;;;;;;;;;;;;;;;;345953;28;884;-74
2021/11/09 00:30:00;;;;;;;;;;;;;;;;;;345910;28;830;-74
2021/11/09 00:30:12;;;;;;;;;;;;;;;;;;345872;28;965;-73
2021/11/09 00:30:24;;;;;;;;;;;;;;;;;;345908;28;937;-73
2021/11/09 00:30:35;;;;;;;;;;;;;;;;;;346275;28;791;-73
2021/11/09 00:31:11;;;;;;;;;;;;;;;;;;347344;28;933;-74
2021/11/09 00:31:22;;;;;;;;;;;;;;;;;;344256;28;1214;-74
2021/11/09 00:31:33;;;;;;;;;;;;;;;;;;344514;28;798;-74
2021/11/09 00:31:44;;;;;;;;;;;;;;;;;;343142;28;1222;-74
2021/11/09 00:31:55;;;;;;;;;;;;;;;;;;342808;28;933;-74
2021/11/09 00:32:06;;;;;;;;;;;;;;;;;;343203;28;977;-74
2021/11/09 00:32:17;;;;;;;;;;;;;;;;;;340443;29;1214;-74
2021/11/09 00:32:32;;;;;;;;;;;;;;;;;;341864;29;823;-74
2021/11/09 00:32:43;;;;;;;;;;;;;;;;;;340345;29;1147;-74
2021/11/09 00:32:54;;;;;;;;;;;;;;;;;;340321;29;1393;-74
2021/11/09 00:33:56;;;;;;;;;;;;;;;;;;340411;29;1249;-74
2021/11/09 00:34:06;;;;;;;;;;;;;;;;;;340562;29;911;-74
2021/11/09 00:34:17;;;;;;;;;;;;;;;;;;341751;29;977;-74
2021/11/09 00:34:27;;;;;;;;;;;;;;;;;;341863;29;966;-74
2021/11/09 00:34:38;;;;;;;;;;;;;;;;;;342020;28;918;-75
2021/11/09 00:34:49;;;;;;;;;;;;;;;;;;342042;28;966;-74
2021/11/09 00:35:02;;;;;;;;;;;;;;;;;;341733;29;894;-73
2021/11/09 00:35:19;;;;;;;;;;;;;;;;;;341793;29;1898;-74
2021/11/09 00:35:44;;;;;;;;;;;;;;;;;;341898;29;926;-74
2021/11/09 00:35:55;;;;;;;;;;;;;;;;;;343236;28;811;-74
2021/11/09 00:36:06;;;;;;;;;;;;;;;;;;344291;28;914;-74
2021/11/09 00:36:16;;;;;;;;;;;;;;;;;;344620;28;886;-74
2021/11/09 00:36:27;;;;;;;;;;;;;;;;;;344552;28;1017;-74
2021/11/09 00:36:38;;;;;;;;;;;;;;;;;;343184;28;1017;-74
2021/11/09 00:36:48;;;;;;;;;;;;;;;;;;344352;28;917;-74
2021/11/09 00:36:58;;;;;;;;;;;;;;;;;;344548;28;893;-74
2021/11/09 00:37:09;;;;;;;;;;;;;;;;;;345211;28;882;-74
2021/11/09 00:37:19;;;;;;;;;;;;;;;;;;345809;28;984;-74
2021/11/09 00:37:29;;;;;;;;;;;;;;;;;;345959;28;826;-74
2021/11/09 00:37:46;;;;;;;;;;;;;;;;;;345959;28;831;-73
2021/11/09 00:37:58;;;;;;;;;;;;;;;;;;344543;28;954;-74
2021/11/09 00:38:10;;;;;;;;;;;;;;;;;;344535;28;1040;-74
2021/11/09 00:38:20;;;;;;;;;;;;;;;;;;344563;28;921;-74
2021/11/09 00:38:57;;;;;;;;;;;;;;;;;;344375;28;1192;-74
2021/11/09 00:39:14;;;;;;;;;;;;;;;;;;344576;28;854;-74
2021/11/09 00:39:24;;;;;;;;;;;;;;;;;;342969;28;1367;-73
2021/11/09 00:40:00;;;;;;;;;;;;;;;;;;343219;28;866;-74
2021/11/09 00:40:12;;;;;;;;;;;;;;;;;;343170;28;910;-74
2021/11/09 00:40:24;;;;;;;;;;;;;;;;;;343235;28;803;-73
2021/11/09 00:40:35;;;;;;;;;;;;;;;;;;343232;28;858;-74
2021/11/09 00:40:46;;;;;;;;;;;;;;;;;;341886;29;957;-74
2021/11/09 00:41:28;;;;;;;;;;;;;;;;;;344557;28;870;-73
2021/11/09 00:41:39;;;;;;;;;;;;;;;;;;343002;28;1486;-74
2021/11/09 00:41:50;;;;;;;;;;;;;;;;;;343259;28;893;-74
2021/11/09 00:42:00;;;;;;;;;;;;;;;;;;343240;28;855;-74
2021/11/09 00:43:03;;;;;;;;;;;;;;;;;;343241;28;922;-74
2021/11/09 00:43:16;;;;;;;;;;;;;;;;;;343163;28;901;-73
2021/11/09 00:43:26;;;;;;;;;;;;;;;;;;342851;28;1035;-74
2021/11/09 00:43:43;;;;;;;;;;;;;;;;;;344539;28;819;-74
2021/11/09 00:43:53;;;;;;;;;;;;;;;;;;342916;28;1131;-73
2021/11/09 00:44:03;;;;;;;;;;;;;;;;;;342995;28;1379;-74
2021/11/09 00:44:14;;;;;;;;;;;;;;;;;;343198;28;838;-73
2021/11/09 00:44:24;;;;;;;;;;;;;;;;;;343105;28;1241;-74
2021/11/09 00:45:02;;;;;;;;;;;;;;;;;;344545;28;985;-74
2021/11/09 00:45:14;;;;;;;;;;;;;;;;;;344580;28;815;-73
2021/11/09 00:45:24;;;;;;;;;;;;;;;;;;344492;28;1028;-75
2021/11/09 00:45:35;;;;;;;;;;;;;;;;;;343094;28;1205;-74
2021/11/09 00:45:46;;;;;;;;;;;;;;;;;;343171;28;906;-74
2021/11/09 00:45:56;;;;;;;;;;;;;;;;;;343145;28;1134;-74
2021/11/09 00:46:07;;;;;;;;;;;;;;;;;;340383;29;1103;-74
2021/11/09 00:46:17;;;;;;;;;;;;;;;;;;340560;29;938;-74
2021/11/09 00:46:27;;;;;;;;;;;;;;;;;;340505;29;923;-73
2021/11/09 00:46:38;;;;;;;;;;;;;;;;;;340585;29;937;-74
2021/11/09 00:46:49;;;;;;;;;;;;;;;;;;340571;29;986;-73
2021/11/09 00:46:59;;;;;;;;;;;;;;;;;;340541;29;994;-73
2021/11/09 00:47:25;;;;;;;;;;;;;;;;;;340522;29;903;-73
2021/11/09 00:47:41;;;;;;;;;;;;;;;;;;341848;29;1060;-74
2021/11/09 00:47:51;;;;;;;;;;;;;;;;;;342978;28;851;-73
2021/11/09 00:48:02;;;;;;;;;;;;;;;;;;342134;28;1186;-74
2021/11/09 00:48:13;;;;;;;;;;;;;;;;;;344482;28;913;-74
2021/11/09 00:48:23;;;;;;;;;;;;;;;;;;345193;28;961;-73
2021/11/09 00:48:34;;;;;;;;;;;;;;;;;;345873;28;929;-74
2021/11/09 00:48:44;;;;;;;;;;;;;;;;;;345859;28;985;-73
2021/11/09 00:48:55;;;;;;;;;;;;;;;;;;344523;28;869;-74
2021/11/09 00:49:05;;;;;;;;;;;;;;;;;;344436;28;803;-74
2021/11/09 00:49:16;;;;;;;;;;;;;;;;;;344375;28;933;-73
2021/11/09 00:49:26;;;;;;;;;;;;;;;;;;343101;28;1440;-74
2021/11/09 00:49:37;;;;;;;;;;;;;;;;;;341774;29;1178;-74
2021/11/09 00:50:02;;;;;;;;;;;;;;;;;;340422;29;1261;-74
2021/11/09 00:50:13;;;;;;;;;;;;;;;;;;341761;29;1262;-74
2021/11/09 00:50:24;;;;;;;;;;;;;;;;;;341870;29;926;-74
2021/11/09 00:50:35;;;;;;;;;;;;;;;;;;341797;29;835;-73
2021/11/09 00:50:46;;;;;;;;;;;;;;;;;;341811;29;1185;-74
2021/11/09 00:50:57;;;;;;;;;;;;;;;;;;341822;29;938;-73
2021/11/09 00:51:07;;;;;;;;;;;;;;;;;;341905;29;917;-74
2021/11/09 00:51:26;;;;;;;;;;;;;;;;;;342786;28;947;-74
2021/11/09 00:51:37;;;;;;;;;;;;;;;;;;341755;29;1262;-73
2021/11/09 00:51:48;;;;;;;;;;;;;;;;;;341843;29;1006;-74
2021/11/09 00:51:59;;;;;;;;;;;;;;;;;;341812;29;970;-74
2021/11/09 00:52:11;;;;;;;;;;;;;;;;;;340399;29;1292;-73
2021/11/09 00:52:21;;;;;;;;;;;;;;;;;;340522;29;1159;-74
2021/11/09 00:52:33;;;;;;;;;;;;;;;;;;340401;29;1290;-73
2021/11/09 00:52:44;;;;;;;;;;;;;;;;;;340421;29;978;-73
2021/11/09 00:52:55;;;;;;;;;;;;;;;;;;340477;29;1025;-73
2021/11/09 00:53:07;;;;;;;;;;;;;;;;;;341907;29;874;-74
2021/11/09 00:53:24;;;;;;;;;;;;;;;;;;341749;29;930;-73
2021/11/09 00:53:35;;;;;;;;;;;;;;;;;;341939;29;807;-74
2021/11/09 00:54:17;;;;;;;;;;;;;;;;;;339021;29;1132;-74
2021/11/09 00:54:28;;;;;;;;;;;;;;;;;;339694;29;1512;-73
2021/11/09 00:54:45;;;;;;;;;;;;;;;;;;340496;29;1001;-73
2021/11/09 00:54:55;;;;;;;;;;;;;;;;;;340359;29;1045;-73
2021/11/09 00:55:06;;;;;;;;;;;;;;;;;;340493;29;1045;-74
2021/11/09 00:55:18;;;;;;;;;;;;;;;;;;340285;29;1902;-73
2021/11/09 00:55:57;;;;;;;;;;;;;;;;;;341809;29;811;-74
2021/11/09 00:56:17;;;;;;;;;;;;;;;;;;341771;29;918;-74
2021/11/09 00:56:33;;;;;;;;;;;;;;;;;;341811;29;772;-74
2021/11/09 00:57:13;;;;;;;;;;;;;;;;;;341671;29;942;-74
2021/11/09 00:57:28;;;;;;;;;;;;;;;;;;341865;29;804;-74
2021/11/09 00:57:39;;;;;;;;;;;;;;;;;;341805;29;902;-74
2021/11/09 00:57:55;;;;;;;;;;;;;;;;;;341792;29;978;-74
2021/11/09 00:58:05;;;;;;;;;;;;;;;;;;341832;29;914;-74
2021/11/09 00:58:16;;;;;;;;;;;;;;;;;;341802;29;894;-74
2021/11/09 00:58:26;;;;;;;;;;;;;;;;;;341668;29;1309;-74
2021/11/09 00:58:37;;;;;;;;;;;;;;;;;;341506;29;926;-73
2021/11/09 00:58:53;;;;;;;;;;;;;;;;;;340514;29;982;-73
2021/11/09 00:59:05;;;;;;;;;;;;;;;;;;340411;29;1562;-74
2021/11/09 00:59:15;;;;;;;;;;;;;;;;;;341598;29;811;-74
2021/11/09 00:59:27;;;;;;;;;;;;;;;;;;340213;29;1123;-73
2021/11/09 00:59:37;;;;;;;;;;;;;;;;;;340440;29;1016;-74
2021/11/09 00:59:48;;;;;;;;;;;;;;;;;;340490;29;1034;-73
2021/11/09 01:00:14;;;;;;;;;;;;;;;;;;340446;29;1472;-74
2021/11/09 01:00:26;;;;;;;;;;;;;;;;;;340492;29;926;-73
2021/11/09 01:00:38;;;;;;;;;;;;;;;;;;340482;29;935;-73
2021/11/09 01:00:48;;;;;;;;;;;;;;;;;;340454;29;974;-74
2021/11/09 01:01:04;;;;;;;;;;;;;;;;;;340472;29;1025;-74
2021/11/09 01:01:14;;;;;;;;;;;;;;;;;;339373;29;902;-74
2021/11/09 01:01:25;;;;;;;;;;;;;;;;;;340199;29;776;-74
2021/11/09 01:01:42;;;;;;;;;;;;;;;;;;340405;29;859;-73
2021/11/09 01:01:52;;;;;;;;;;;;;;;;;;340822;29;957;-74
2021/11/09 01:02:02;;;;;;;;;;;;;;;;;;341804;29;978;-73
2021/11/09 01:02:13;;;;;;;;;;;;;;;;;;341827;29;791;-73
2021/11/09 01:02:23;;;;;;;;;;;;;;;;;;341858;29;823;-74
2021/11/09 01:02:35;;;;;;;;;;;;;;;;;;341834;29;890;-74
2021/11/09 01:02:46;;;;;;;;;;;;;;;;;;341806;29;804;-73
2021/11/09 01:02:56;;;;;;;;;;;;;;;;;;341787;29;713;-74
2021/11/09 01:03:08;;;;;;;;;;;;;;;;;;341833;29;973;-74
2021/11/09 01:03:18;;;;;;;;;;;;;;;;;;341728;29;792;-74
2021/11/09 01:03:29;;;;;;;;;;;;;;;;;;341807;29;831;-74
2021/11/09 01:03:40;;;;;;;;;;;;;;;;;;341841;29;803;-74
2021/11/09 01:04:16;;;;;;;;;;;;;;;;;;341625;29;1178;-73
2021/11/09 01:04:27;;;;;;;;;;;;;;;;;;341706;29;823;-73
2021/11/09 01:05:03;;;;;;;;;;;;;;;;;;341174;29;903;-73
2021/11/09 01:05:15;;;;;;;;;;;;;;;;;;340417;29;962;-74
2021/11/09 01:05:27;;;;;;;;;;;;;;;;;;340543;29;974;-74
2021/11/09 01:05:37;;;;;;;;;;;;;;;;;;339085;29;1407;-73
2021/11/09 01:06:03;;;;;;;;;;;;;;;;;;340324;29;1483;-74
2021/11/09 01:06:20;;;;;;;;;;;;;;;;;;340447;29;915;-74
2021/11/09 01:06:30;;;;;;;;;;;;;;;;;;339144;29;977;-74
2021/11/09 01:06:41;;;;;;;;;;;;;;;;;;337832;29;1103;-74
2021/11/09 01:06:51;;;;;;;;;;;;;;;;;;337939;29;847;-73
2021/11/09 01:07:01;;;;;;;;;;;;;;;;;;337810;29;998;-73
2021/11/09 01:07:12;;;;;;;;;;;;;;;;;;337900;29;811;-73
2021/11/09 01:07:22;;;;;;;;;;;;;;;;;;337731;29;1306;-74
2021/11/09 01:08:01;;;;;;;;;;;;;;;;;;336656;29;824;-73
2021/11/09 01:08:15;;;;;;;;;;;;;;;;;;336514;29;954;-73
2021/11/09 01:08:25;;;;;;;;;;;;;;;;;;338302;29;811;-74
2021/11/09 01:08:35;;;;;;;;;;;;;;;;;;339699;29;838;-73
2021/11/09 01:08:46;;;;;;;;;;;;;;;;;;339208;29;1032;-74
2021/11/09 01:08:56;;;;;;;;;;;;;;;;;;340482;29;1012;-74
2021/11/09 01:09:06;;;;;;;;;;;;;;;;;;340494;29;954;-74
2021/11/09 01:10:17;;;;;;;;;;;;;;;;;;341699;29;1160;-74
2021/11/09 01:10:29;;;;;;;;;;;;;;;;;;341465;29;1552;-74
2021/11/09 01:10:41;;;;;;;;;;;;;;;;;;341789;29;830;-74
2021/11/09 01:10:53;;;;;;;;;;;;;;;;;;341803;29;846;-74
2021/11/09 01:11:03;;;;;;;;;;;;;;;;;;341834;29;941;-74
2021/11/09 01:11:14;;;;;;;;;;;;;;;;;;341750;29;1052;-74
2021/11/09 01:11:25;;;;;;;;;;;;;;;;;;341765;29;843;-74
2021/11/09 01:11:35;;;;;;;;;;;;;;;;;;341793;29;890;-74
2021/11/09 01:11:46;;;;;;;;;;;;;;;;;;340398;29;1183;-74
2021/11/09 01:11:56;;;;;;;;;;;;;;;;;;340371;29;1261;-73
2021/11/09 01:12:08;;;;;;;;;;;;;;;;;;340496;29;819;-74
2021/11/09 01:12:19;;;;;;;;;;;;;;;;;;339099;29;1651;-74
2021/11/09 01:12:29;;;;;;;;;;;;;;;;;;337686;29;921;-74
2021/11/09 01:12:39;;;;;;;;;;;;;;;;;;337755;29;898;-74
2021/11/09 01:12:50;;;;;;;;;;;;;;;;;;337814;29;966;-74
2021/11/09 01:13:28;;;;;;;;;;;;;;;;;;337891;29;989;-74
2021/11/09 01:13:38;;;;;;;;;;;;;;;;;;337988;29;895;-74
2021/11/09 01:13:49;;;;;;;;;;;;;;;;;;339044;29;1214;-74
2021/11/09 01:14:17;;;;;;;;;;;;;;;;;;339338;29;957;-74
2021/11/09 01:14:27;;;;;;;;;;;;;;;;;;339050;29;1590;-73
2021/11/09 01:14:38;;;;;;;;;;;;;;;;;;338965;29;910;-74
2021/11/09 01:14:49;;;;;;;;;;;;;;;;;;339109;29;946;-74
2021/11/09 01:14:59;;;;;;;;;;;;;;;;;;339897;29;840;-74
2021/11/09 01:15:10;;;;;;;;;;;;;;;;;;340458;29;985;-74
2021/11/09 01:15:21;;;;;;;;;;;;;;;;;;340267;29;1910;-73
2021/11/09 01:15:32;;;;;;;;;;;;;;;;;;340570;29;937;-74
2021/11/09 01:15:50;;;;;;;;;;;;;;;;;;340334;29;1243;-74
2021/11/09 01:16:01;;;;;;;;;;;;;;;;;;340232;29;938;-74
2021/11/09 01:16:11;;;;;;;;;;;;;;;;;;340312;29;827;-74
2021/11/09 01:16:22;;;;;;;;;;;;;;;;;;340934;29;965;-73
2021/11/09 01:16:33;;;;;;;;;;;;;;;;;;341822;29;910;-74
2021/11/09 01:16:43;;;;;;;;;;;;;;;;;;341703;29;1350;-74
2021/11/09 01:17:00;;;;;;;;;;;;;;;;;;341827;29;815;-74
2021/11/09 01:17:16;;;;;;;;;;;;;;;;;;341708;29;859;-73
2021/11/09 01:17:27;;;;;;;;;;;;;;;;;;341245;29;969;-73
2021/11/09 01:17:38;;;;;;;;;;;;;;;;;;340495;29;1070;-74
2021/11/09 01:17:49;;;;;;;;;;;;;;;;;;341682;29;1282;-73
2021/11/09 01:18:00;;;;;;;;;;;;;;;;;;341741;29;981;-73
2021/11/09 01:18:38;;;;;;;;;;;;;;;;;;339076;29;1455;-74
2021/11/09 01:18:51;;;;;;;;;;;;;;;;;;339173;29;1056;-73
2021/11/09 01:19:04;;;;;;;;;;;;;;;;;;339135;29;1048;-74
2021/11/09 01:19:15;;;;;;;;;;;;;;;;;;339011;29;1581;-73
2021/11/09 01:19:27;;;;;;;;;;;;;;;;;;339055;29;1045;-74
2021/11/09 01:19:38;;;;;;;;;;;;;;;;;;339048;29;1054;-73
2021/11/09 01:19:49;;;;;;;;;;;;;;;;;;337824;29;820;-73
2021/11/09 01:19:59;;;;;;;;;;;;;;;;;;339175;29;899;-73
2021/11/09 01:20:38;;;;;;;;;;;;;;;;;;341680;29;977;-73
2021/11/09 01:20:49;;;;;;;;;;;;;;;;;;341798;29;1390;-73
2021/11/09 01:21:00;;;;;;;;;;;;;;;;;;341819;29;1009;-74
2021/11/09 01:21:18;;;;;;;;;;;;;;;;;;341641;29;957;-73
2021/11/09 01:21:28;;;;;;;;;;;;;;;;;;341599;29;1311;-74
2021/11/09 01:21:39;;;;;;;;;;;;;;;;;;341677;29;1288;-73
2021/11/09 01:21:51;;;;;;;;;;;;;;;;;;341768;29;800;-74
2021/11/09 01:22:28;;;;;;;;;;;;;;;;;;341773;29;815;-74
2021/11/09 01:22:39;;;;;;;;;;;;;;;;;;339086;29;1280;-73
2021/11/09 01:23:04;;;;;;;;;;;;;;;;;;339105;29;1029;-74
2021/11/09 01:23:15;;;;;;;;;;;;;;;;;;339050;29;1041;-74
2021/11/09 01:23:26;;;;;;;;;;;;;;;;;;339137;29;1017;-74
2021/11/09 01:23:37;;;;;;;;;;;;;;;;;;339907;29;1451;-73
2021/11/09 01:23:49;;;;;;;;;;;;;;;;;;340358;29;815;-73
2021/11/09 01:23:59;;;;;;;;;;;;;;;;;;339529;29;1421;-74
2021/11/09 01:24:11;;;;;;;;;;;;;;;;;;337877;29;824;-73
2021/11/09 01:24:22;;;;;;;;;;;;;;;;;;337826;29;812;-73
2021/11/09 01:24:32;;;;;;;;;;;;;;;;;;338141;29;942;-73
2021/11/09 01:24:43;;;;;;;;;;;;;;;;;;339143;29;914;-73
2021/11/09 01:24:53;;;;;;;;;;;;;;;;;;338827;29;942;-73
2021/11/09 01:25:04;;;;;;;;;;;;;;;;;;339110;29;977;-74
2021/11/09 01:25:21;;;;;;;;;;;;;;;;;;339073;29;899;-73
2021/11/09 01:25:39;;;;;;;;;;;;;;;;;;340516;29;934;-74
2021/11/09 01:25:49;;;;;;;;;;;;;;;;;;339094;29;1359;-74
2021/11/09 01:26:00;;;;;;;;;;;;;;;;;;339018;29;931;-73
2021/11/09 01:26:26;;;;;;;;;;;;;;;;;;340420;29;986;-73
2021/11/09 01:26:45;;;;;;;;;;;;;;;;;;340456;29;827;-73
2021/11/09 01:27:48;;;;;;;;;;;;;;;;;;340403;29;1002;-74
2021/11/09 01:27:59;;;;;;;;;;;;;;;;;;340471;29;819;-73
2021/11/09 01:28:10;;;;;;;;;;;;;;;;;;340409;29;965;-73
2021/11/09 01:28:20;;;;;;;;;;;;;;;;;;340420;29;870;-73
2021/11/09 01:28:31;;;;;;;;;;;;;;;;;;340460;29;966;-73
2021/11/09 01:28:43;;;;;;;;;;;;;;;;;;340414;29;847;-73
2021/11/09 01:28:55;;;;;;;;;;;;;;;;;;341213;29;978;-74
2021/11/09 01:29:15;;;;;;;;;;;;;;;;;;341777;29;1029;-73
2021/11/09 01:29:31;;;;;;;;;;;;;;;;;;341774;29;965;-74
2021/11/09 01:29:42;;;;;;;;;;;;;;;;;;341815;29;804;-74
2021/11/09 01:29:52;;;;;;;;;;;;;;;;;;341691;29;835;-74
2021/11/09 01:30:05;;;;;;;;;;;;;;;;;;340302;29;927;-74
2021/11/09 01:30:19;;;;;;;;;;;;;;;;;;340491;29;911;-74
2021/11/09 01:30:35;;;;;;;;;;;;;;;;;;340365;29;895;-73
2021/11/09 01:30:46;;;;;;;;;;;;;;;;;;339090;29;1579;-73
2021/11/09 01:31:50;;;;;;;;;;;;;;;;;;339061;29;1425;-73
2021/11/09 01:32:01;;;;;;;;;;;;;;;;;;339984;29;906;-74
2021/11/09 01:32:11;;;;;;;;;;;;;;;;;;340367;29;1752;-74
2021/11/09 01:32:22;;;;;;;;;;;;;;;;;;340470;29;831;-73
2021/11/09 01:32:58;;;;;;;;;;;;;;;;;;344526;28;827;-73
2021/11/09 01:33:09;;;;;;;;;;;;;;;;;;344478;28;977;-73
2021/11/09 01:33:20;;;;;;;;;;;;;;;;;;344379;28;842;-74
2021/11/09 01:33:30;;;;;;;;;;;;;;;;;;344508;28;810;-73
2021/11/09 01:33:41;;;;;;;;;;;;;;;;;;344423;28;1244;-73
2021/11/09 01:33:52;;;;;;;;;;;;;;;;;;344398;28;1437;-74
2021/11/09 01:34:03;;;;;;;;;;;;;;;;;;344493;28;993;-73
2021/11/09 01:34:25;;;;;;;;;;;;;;;;;;343093;28;1265;-74
2021/11/09 01:34:51;;;;;;;;;;;;;;;;;;343112;28;826;-74
2021/11/09 01:35:03;;;;;;;;;;;;;;;;;;342998;28;993;-73
2021/11/09 01:35:13;;;;;;;;;;;;;;;;;;342976;28;982;-73
2021/11/09 01:35:24;;;;;;;;;;;;;;;;;;341304;29;1895;-74
2021/11/09 01:35:34;;;;;;;;;;;;;;;;;;340743;29;966;-74
2021/11/09 01:35:45;;;;;;;;;;;;;;;;;;340736;29;970;-74
2021/11/09 01:35:56;;;;;;;;;;;;;;;;;;341815;29;850;-73
2021/11/09 01:36:06;;;;;;;;;;;;;;;;;;341989;28;788;-74
2021/11/09 01:36:17;;;;;;;;;;;;;;;;;;342709;28;1093;-73
2021/11/09 01:36:43;;;;;;;;;;;;;;;;;;343242;28;1005;-73
2021/11/09 01:36:55;;;;;;;;;;;;;;;;;;343179;28;830;-74
2021/11/09 01:37:05;;;;;;;;;;;;;;;;;;343048;28;1036;-73
2021/11/09 01:37:16;;;;;;;;;;;;;;;;;;343114;28;819;-73
2021/11/09 01:37:26;;;;;;;;;;;;;;;;;;344490;28;786;-74
2021/11/09 01:37:38;;;;;;;;;;;;;;;;;;344628;28;878;-73
2021/11/09 01:37:49;;;;;;;;;;;;;;;;;;345862;28;1064;-74
2021/11/09 01:37:59;;;;;;;;;;;;;;;;;;345821;28;1126;-73
2021/11/09 01:38:10;;;;;;;;;;;;;;;;;;344397;28;1424;-74
2021/11/09 01:38:20;;;;;;;;;;;;;;;;;;344494;28;1001;-73
2021/11/09 01:38:32;;;;;;;;;;;;;;;;;;344358;28;1438;-73
2021/11/09 01:39:09;;;;;;;;;;;;;;;;;;344462;28;966;-73
2021/11/09 01:39:19;;;;;;;;;;;;;;;;;;344264;28;985;-73
2021/11/09 01:39:29;;;;;;;;;;;;;;;;;;344425;28;846;-74
2021/11/09 01:39:40;;;;;;;;;;;;;;;;;;344517;28;819;-74
2021/11/09 01:39:50;;;;;;;;;;;;;;;;;;344475;28;898;-73
2021/11/09 01:40:02;;;;;;;;;;;;;;;;;;344435;28;885;-73
2021/11/09 01:40:27;;;;;;;;;;;;;;;;;;345707;28;909;-73
2021/11/09 01:41:08;;;;;;;;;;;;;;;;;;347235;28;1016;-73
2021/11/09 01:41:19;;;;;;;;;;;;;;;;;;347227;28;1082;-74
2021/11/09 01:41:29;;;;;;;;;;;;;;;;;;345787;28;803;-74
2021/11/09 01:41:40;;;;;;;;;;;;;;;;;;345843;28;922;-74
2021/11/09 01:41:57;;;;;;;;;;;;;;;;;;345844;28;834;-73
2021/11/09 01:42:08;;;;;;;;;;;;;;;;;;344338;28;1164;-73
2021/11/09 01:42:18;;;;;;;;;;;;;;;;;;343136;28;989;-74
2021/11/09 01:42:44;;;;;;;;;;;;;;;;;;343176;28;897;-74
2021/11/09 01:42:56;;;;;;;;;;;;;;;;;;343098;28;938;-73
2021/11/09 01:43:07;;;;;;;;;;;;;;;;;;343124;28;973;-73
2021/11/09 01:43:17;;;;;;;;;;;;;;;;;;343050;28;875;-73
2021/11/09 01:43:55;;;;;;;;;;;;;;;;;;344463;28;961;-74
2021/11/09 01:44:06;;;;;;;;;;;;;;;;;;344442;28;842;-73
2021/11/09 01:44:16;;;;;;;;;;;;;;;;;;345319;28;1032;-73
2021/11/09 01:44:27;;;;;;;;;;;;;;;;;;345887;28;881;-74
2021/11/09 01:45:04;;;;;;;;;;;;;;;;;;345832;28;953;-74